Time;durP1;ratioP1;P1;durP2;ratioP2;P2;SDS_P1;SDS_P2;PMS_P1;PMS_P2;Temp;Humidity;BMP_temperature;BMP_pressure;BME280_temperature;BME280_humidity;BME280_pressure;Samples;Min_cycle;Max_cycle;Signal;HPM_P1;HPM_P2
2022/01/19 00:04:43;;;;;;;8.17;5.00;;;;;;;4.49;47.06;102156.25;10440690;28;20658;-84
2022/01/19 00:09:46;;;;;;;11.47;5.40;;;;;;;4.25;47.62;102159.31;10440597;28;20220;-84
2022/01/19 00:14:48;;;;;;;9.27;6.10;;;;;;;4.24;47.23;102168.00;10458578;28;20212;-84
2022/01/19 00:19:50;;;;;;;11.07;6.67;;;;;;;3.82;47.61;102164.91;10427200;28;20286;-84
2022/01/19 00:24:53;;;;;;;11.43;6.80;;;;;;;3.88;48.00;102152.66;10472093;28;20272;-84
2022/01/19 00:29:55;;;;;;;12.17;6.83;;;;;;;3.81;48.26;102124.06;10490926;28;20199;-84
2022/01/19 00:34:57;;;;;;;13.30;7.37;;;;;;;4.04;47.86;102090.22;10507053;28;20562;-83
2022/01/19 00:39:59;;;;;;;12.43;7.50;;;;;;;3.39;48.97;102081.78;10460628;28;20215;-83
2022/01/19 00:45:04;;;;;;;11.50;7.57;;;;;;;3.82;48.09;102080.97;10506765;28;20200;-84
2022/01/19 00:50:09;;;;;;;11.07;7.50;;;;;;;3.59;47.82;102066.16;10506683;28;20241;-84
2022/01/19 00:55:13;;;;;;;12.47;7.10;;;;;;;3.51;47.66;102074.13;10506569;28;20211;-84
2022/01/19 01:00:18;;;;;;;9.50;6.70;;;;;;;3.38;48.02;102077.28;10473854;28;20492;-82
2022/01/19 01:05:22;;;;;;;9.57;6.30;;;;;;;3.91;47.01;102073.81;10484281;28;20273;-85
2022/01/19 01:10:24;;;;;;;11.30;5.90;;;;;;;3.32;47.92;102054.03;10434718;28;20215;-83
2022/01/19 01:16:00;;;;;;;8.37;5.00;;;;;;;3.18;48.49;102024.72;10453494;28;20223;-84
2022/01/19 01:21:02;;;;;;;8.80;4.83;;;;;;;3.32;48.27;102020.50;10464511;28;20238;-84
2022/01/19 01:26:07;;;;;;;11.97;4.60;;;;;;;3.10;48.35;102020.41;10423768;28;20258;-82
2022/01/19 01:31:09;;;;;;;10.43;5.47;;;;;;;3.27;48.18;101992.44;10475452;28;20268;-82
2022/01/19 01:36:14;;;;;;;9.77;5.57;;;;;;;3.21;48.03;101973.91;10504427;28;20643;-82
2022/01/19 01:41:16;;;;;;;9.30;5.63;;;;;;;2.63;49.85;101955.72;10472220;28;20203;-82
2022/01/19 01:46:43;;;;;;;10.00;5.37;;;;;;;2.94;49.67;101941.13;10489675;28;20235;-82
2022/01/19 01:57:09;;;;;;;7.63;5.10;;;;;;;3.18;48.95;101980.84;10490235;28;20231;-82
2022/01/19 02:02:12;;;;;;;7.60;4.33;;;;;;;3.00;49.06;101983.94;10481280;28;20266;-82
2022/01/19 02:23:57;;;;;;;10.80;5.37;;;;;;;2.39;49.10;101954.22;10489108;28;20230;-82
2022/01/19 02:50:07;;;;;;;11.60;5.87;;;;;;;1.70;51.87;101928.41;10484255;28;20639;-83
2022/01/19 02:55:09;;;;;;;10.23;6.00;;;;;;;2.70;49.54;101906.13;10501519;28;20219;-84
2022/01/19 03:10:54;;;;;;;8.20;5.77;;;;;;;2.37;50.43;101872.69;10501123;28;20253;-84
2022/01/19 03:15:56;;;;;;;8.00;6.00;;;;;;;2.27;50.88;101881.75;10484534;28;20219;-83
2022/01/19 03:20:59;;;;;;;7.73;6.03;;;;;;;1.82;53.45;101887.38;10484802;28;20261;-83
2022/01/19 03:26:06;;;;;;;6.80;6.10;;;;;;;1.72;53.49;101892.75;10454744;28;20226;-83
2022/01/19 03:31:08;;;;;;;6.73;6.03;;;;;;;2.30;52.23;101880.41;10484951;28;20207;-84
2022/01/19 03:36:10;;;;;;;7.70;6.17;;;;;;;2.36;52.60;101866.25;10484393;28;20273;-83
2022/01/19 03:41:13;;;;;;;8.63;6.27;;;;;;;2.04;53.54;101860.47;10493002;28;20257;-85
2022/01/19 03:46:16;;;;;;;6.37;5.57;;;;;;;2.91;51.60;101860.63;10501361;28;20227;-84
2022/01/19 03:51:19;;;;;;;5.60;5.10;;;;;;;3.29;51.20;101845.75;10483987;28;20253;-83
2022/01/19 03:56:21;;;;;;;9.27;5.20;;;;;;;3.42;49.76;101835.25;10483552;28;20223;-83
2022/01/19 04:01:23;;;;;;;5.27;4.77;;;;;;;3.73;49.06;101811.22;10455940;28;20528;-84
2022/01/19 04:06:50;;;;;;;5.73;5.00;;;;;;;3.38;49.56;101801.38;10449388;28;20521;-83
2022/01/19 04:11:51;;;;;;;6.07;5.07;;;;;;;3.99;48.11;101776.75;10458217;28;20698;-82
2022/01/19 04:16:56;;;;;;;9.33;5.33;;;;;;;3.57;48.04;101777.53;10457892;28;20227;-83
2022/01/19 04:22:03;;;;;;;7.97;4.90;;;;;;;3.01;50.68;101775.25;10425118;28;20549;-84
2022/01/19 04:32:33;;;;;;;5.90;4.80;;;;;;;3.43;49.92;101742.72;10457997;28;20195;-84
2022/01/19 04:38:03;;;;;;;5.87;4.77;;;;;;;3.41;49.55;101747.75;10457639;28;20228;-84
2022/01/19 05:04:54;;;;;;;5.17;4.10;;;;;;;3.87;48.36;101693.00;10475935;28;20230;-84
2022/01/19 05:15:31;;;;;;;4.97;4.57;;;;;;;3.46;49.88;101675.09;10452538;28;20231;-83
2022/01/19 05:20:35;;;;;;;6.00;5.30;;;;;;;2.57;52.79;101691.50;10432246;28;20203;-83
2022/01/19 05:25:38;;;;;;;6.30;5.70;;;;;;;3.09;51.58;101675.03;10462496;28;20508;-84
2022/01/19 05:30:44;;;;;;;6.20;5.70;;;;;;;2.98;51.42;101671.28;10459130;28;20254;-83
2022/01/19 05:35:46;;;;;;;6.83;6.23;;;;;;;3.59;50.11;101655.06;10479882;28;20223;-83
2022/01/19 05:41:27;;;;;;;7.87;7.07;;;;;;;3.86;49.23;101642.94;10386833;28;20205;-84
2022/01/19 05:46:29;;;;;;;7.07;6.47;;;;;;;3.04;51.10;101626.66;10427294;28;20256;-83
2022/01/19 05:51:32;;;;;;;7.47;6.87;;;;;;;3.20;51.34;101617.28;10468741;28;20204;-84
2022/01/19 05:56:35;;;;;;;6.77;6.27;;;;;;;3.40;50.30;101617.47;10462624;28;20845;-82
2022/01/19 06:01:53;;;;;;;5.63;5.23;;;;;;;2.55;51.79;101605.25;10460221;28;20207;-84
2022/01/19 06:06:56;;;;;;;5.33;4.93;;;;;;;2.83;51.20;101614.44;10469823;28;20331;-83
2022/01/19 06:12:38;;;;;;;4.10;3.90;;;;;;;2.74;50.95;101602.91;10401366;28;20909;-83
2022/01/19 06:17:41;;;;;;;4.60;4.20;;;;;;;2.97;50.64;101591.38;10406928;28;20232;-84
2022/01/19 06:22:54;;;;;;;5.47;4.97;;;;;;;2.88;51.44;101579.03;10419279;28;20259;-84
2022/01/19 06:27:59;;;;;;;4.80;4.43;;;;;;;2.44;51.40;101580.28;10405010;28;20204;-83
2022/01/19 06:33:01;;;;;;;4.40;4.10;;;;;;;2.54;51.58;101594.34;10462509;28;20207;-84
2022/01/19 06:38:04;;;;;;;4.40;4.00;;;;;;;2.38;51.61;101584.13;10443757;28;20251;-84
2022/01/19 06:43:37;;;;;;;3.30;3.10;;;;;;;2.29;52.22;101580.97;10448171;28;20599;-83
2022/01/19 06:48:40;;;;;;;3.53;3.23;;;;;;;2.42;51.01;101586.16;10422279;28;20278;-82
2022/01/19 06:53:44;;;;;;;3.90;3.50;;;;;;;3.13;49.48;101588.72;10467998;28;20207;-84
2022/01/19 06:58:55;;;;;;;3.93;3.63;;;;;;;3.78;47.82;101593.06;10440070;28;20236;-84
2022/01/19 07:04:03;;;;;;;4.00;3.60;;;;;;;3.51;48.79;101598.78;10444181;28;20215;-84
2022/01/19 07:09:08;;;;;;;3.60;3.30;;;;;;;3.05;49.16;101590.06;10420352;28;20232;-84
2022/01/19 07:14:14;;;;;;;4.30;3.40;;;;;;;2.88;49.96;101580.97;10456116;28;20211;-84
2022/01/19 07:19:17;;;;;;;3.40;3.07;;;;;;;3.68;48.11;101566.75;10426797;28;20285;-84
2022/01/19 07:24:21;;;;;;;3.53;3.23;;;;;;;3.15;49.24;101559.41;10438646;28;20547;-85
2022/01/19 07:29:23;;;;;;;3.50;3.20;;;;;;;3.20;49.13;101547.44;10430202;28;20322;-84
2022/01/19 07:34:29;;;;;;;3.70;3.40;;;;;;;3.79;47.67;101553.66;10452378;28;20200;-85
2022/01/19 07:39:35;;;;;;;5.53;4.40;;;;;;;3.77;47.61;101541.88;10459732;28;20204;-83
2022/01/19 07:44:39;;;;;;;3.33;3.03;;;;;;;2.78;49.32;101537.06;10445356;28;20681;-83
2022/01/19 07:49:59;;;;;;;3.87;3.57;;;;;;;2.52;50.75;101518.41;10458401;28;20280;-83
2022/01/19 07:55:20;;;;;;;5.20;4.00;;;;;;;3.25;48.80;101525.13;10448572;28;20569;-85
2022/01/19 08:00:46;;;;;;;4.53;3.43;;;;;;;3.29;48.47;101515.09;10447381;28;20608;-84
2022/01/19 08:06:14;;;;;;;4.20;3.30;;;;;;;3.20;48.84;101499.94;10439346;28;20228;-85
2022/01/19 08:11:18;;;;;;;3.73;3.43;;;;;;;3.12;49.88;101489.25;10454981;28;20238;-84
2022/01/19 08:16:24;;;;;;;5.80;3.50;;;;;;;2.90;49.39;101493.03;10465871;28;20235;-84
2022/01/19 08:21:26;;;;;;;4.10;3.70;;;;;;;3.93;47.13;101484.03;10472786;28;20207;-84
2022/01/19 08:26:34;;;;;;;5.30;3.20;;;;;;;2.80;48.91;101492.97;10466249;28;21510;-85
2022/01/19 08:31:40;;;;;;;4.00;3.70;;;;;;;3.37;47.63;101496.94;10454103;28;20280;-84
2022/01/19 08:36:44;;;;;;;4.93;4.10;;;;;;;2.95;48.32;101509.81;10495427;28;20241;-84
2022/01/19 08:41:55;;;;;;;4.73;4.37;;;;;;;3.56;47.57;101503.78;10429819;28;20338;-84
2022/01/19 08:46:58;;;;;;;4.80;4.27;;;;;;;3.08;47.96;101510.47;10425208;28;20211;-83
2022/01/19 08:52:55;;;;;;;4.17;3.87;;;;;;;3.26;47.72;101508.09;10435091;28;20200;-83
2022/01/19 08:58:07;;;;;;;4.70;4.30;;;;;;;3.21;48.16;101499.63;10481691;28;20639;-82
2022/01/19 09:03:09;;;;;;;5.80;5.30;;;;;;;3.65;45.97;101486.19;10476095;28;20592;-85
2022/01/19 09:08:11;;;;;;;4.33;3.93;;;;;;;3.23;47.04;101474.22;10478451;28;20231;-85
2022/01/19 09:13:14;;;;;;;5.30;4.90;;;;;;;4.48;45.12;101451.66;10493573;28;20203;-84
2022/01/19 09:18:16;;;;;;;6.00;5.43;;;;;;;4.05;45.70;101459.44;10481119;28;20238;-85
2022/01/19 09:23:18;;;;;;;5.90;5.27;;;;;;;3.99;45.20;101461.38;10478949;28;20213;-84
2022/01/19 09:28:20;;;;;;;6.43;5.83;;;;;;;3.95;46.05;101453.84;10499819;28;20207;-84
2022/01/19 09:33:24;;;;;;;7.33;6.63;;;;;;;3.25;47.36;101452.47;10466950;28;20257;-84
2022/01/19 09:38:29;;;;;;;8.27;6.93;;;;;;;3.01;48.84;101443.63;10497937;28;20512;-82
2022/01/19 09:43:32;;;;;;;12.00;9.40;;;;;;;3.53;47.90;101428.81;10463455;28;20204;-85
2022/01/19 09:48:34;;;;;;;11.13;9.73;;;;;;;2.75;48.85;101445.44;10474193;28;20278;-82
2022/01/19 09:53:36;;;;;;;12.57;10.20;;;;;;;3.52;47.62;101433.56;10480279;28;20200;-84
2022/01/19 09:58:41;;;;;;;12.73;10.27;;;;;;;3.05;47.49;101433.63;10462548;28;20509;-85
2022/01/19 10:03:44;;;;;;;11.63;10.23;;;;;;;3.77;46.95;101418.81;10431167;28;20203;-82
2022/01/19 10:08:55;;;;;;;11.13;9.67;;;;;;;3.09;47.95;101415.19;10464565;28;20696;-85
2022/01/19 10:19:21;;;;;;;11.20;9.27;;;;;;;3.05;48.14;101397.31;10443679;28;20247;-83
2022/01/19 10:24:32;;;;;;;11.23;10.03;;;;;;;3.03;48.19;101390.28;10485483;28;20564;-83
2022/01/19 10:29:35;;;;;;;12.30;9.83;;;;;;;3.02;47.87;101369.06;10461846;28;20261;-85
2022/01/19 10:34:37;;;;;;;13.43;9.00;;;;;;;2.93;47.11;101363.16;10460174;28;20593;-82
2022/01/19 10:39:42;;;;;;;11.30;8.83;;;;;;;3.71;46.26;101349.19;10468060;28;20247;-83
2022/01/19 10:44:48;;;;;;;11.57;9.93;;;;;;;3.36;47.30;101345.19;10474493;28;20207;-84
2022/01/19 10:50:08;;;;;;;12.40;10.17;;;;;;;3.90;45.61;101342.75;10461029;28;20231;-84
2022/01/19 10:55:28;;;;;;;13.53;9.70;;;;;;;3.82;45.99;101342.47;10449585;28;20203;-84
2022/01/19 11:00:34;;;;;;;11.27;10.07;;;;;;;3.86;46.53;101326.81;10432475;28;20269;-83
2022/01/19 11:05:41;;;;;;;12.03;9.70;;;;;;;3.98;45.55;101332.97;10460778;28;20227;-84
2022/01/19 11:10:50;;;;;;;14.93;10.07;;;;;;;3.92;45.41;101320.09;10465866;28;20690;-84
2022/01/19 11:15:53;;;;;;;14.70;10.37;;;;;;;4.26;44.90;101304.38;10443585;28;20270;-83
2022/01/19 11:21:05;;;;;;;12.13;10.40;;;;;;;3.87;46.49;101300.50;10490839;28;20204;-83
2022/01/19 11:26:13;;;;;;;12.37;10.07;;;;;;;3.64;46.52;101297.16;10450321;28;20223;-83
2022/01/19 11:31:21;;;;;;;11.53;9.77;;;;;;;3.87;46.00;101278.13;10434494;28;20203;-83
2022/01/19 11:36:26;;;;;;;11.20;9.33;;;;;;;3.56;47.05;101264.16;10442888;28;20258;-84
2022/01/19 11:41:36;;;;;;;13.43;9.50;;;;;;;4.14;45.54;101244.22;10426425;28;20239;-84
2022/01/19 11:46:48;;;;;;;11.30;9.73;;;;;;;3.87;46.11;101227.78;10440208;28;20645;-84
2022/01/19 11:51:55;;;;;;;11.57;9.60;;;;;;;4.06;46.13;101226.06;10429842;28;20200;-83
2022/01/19 11:57:02;;;;;;;12.23;9.77;;;;;;;3.53;46.39;101233.94;10408649;28;21184;-84
2022/01/19 12:02:28;;;;;;;12.53;9.50;;;;;;;3.52;47.11;101215.50;10439528;28;20261;-84
2022/01/19 12:08:01;;;;;;;11.17;9.53;;;;;;;3.71;46.24;101200.97;10421968;28;20227;-83
2022/01/19 12:18:50;;;;;;;12.20;9.37;;;;;;;3.68;46.63;101180.81;10439470;28;20215;-84
2022/01/19 12:23:52;;;;;;;10.40;8.90;;;;;;;4.18;45.68;101167.84;10428354;28;20273;-82
2022/01/19 12:28:54;;;;;;;12.23;10.27;;;;;;;3.76;46.45;101153.41;10454669;28;20261;-83
2022/01/19 12:34:03;;;;;;;13.70;10.30;;;;;;;3.35;47.46;101153.44;10436139;28;20504;-83
2022/01/19 12:39:29;;;;;;;11.60;9.60;;;;;;;4.13;45.90;101130.63;10444509;28;20219;-84
2022/01/19 12:44:55;;;;;;;11.30;9.90;;;;;;;3.45;47.23;101136.69;10447011;28;20204;-83
2022/01/19 12:50:03;;;;;;;14.50;9.87;;;;;;;3.73;46.70;101126.00;10455448;28;20224;-85
2022/01/19 12:55:15;;;;;;;10.93;9.83;;;;;;;3.78;46.85;101118.44;10448195;28;20204;-83
2022/01/19 13:00:21;;;;;;;14.50;10.67;;;;;;;3.45;47.43;101124.66;10444747;28;20494;-82
2022/01/19 13:05:28;;;;;;;11.87;10.60;;;;;;;3.54;47.04;101112.63;10446199;28;20714;-83
2022/01/19 13:10:47;;;;;;;11.50;10.40;;;;;;;3.53;47.18;101110.94;10430726;28;20208;-83
2022/01/19 13:15:55;;;;;;;13.10;10.13;;;;;;;2.60;49.51;101110.31;10462456;28;20203;-83
2022/01/19 13:21:03;;;;;;;11.73;9.63;;;;;;;4.10;45.91;101081.69;10453041;28;20270;-82
2022/01/19 13:26:07;;;;;;;11.17;9.33;;;;;;;3.92;46.71;101080.34;10459156;28;20208;-82
2022/01/19 13:31:20;;;;;;;14.17;10.43;;;;;;;3.36;47.79;101082.44;10470127;28;20574;-82
2022/01/19 13:36:29;;;;;;;11.30;9.70;;;;;;;3.56;46.94;101074.03;10438698;28;20285;-82
2022/01/19 13:41:32;;;;;;;12.10;10.07;;;;;;;4.03;46.22;101064.34;10479532;28;20261;-82
2022/01/19 13:46:38;;;;;;;14.23;10.30;;;;;;;4.06;46.03;101052.59;10474545;28;20220;-83
2022/01/19 13:51:42;;;;;;;12.50;10.20;;;;;;;3.34;47.20;101035.22;10439922;28;20251;-83
2022/01/19 13:56:44;;;;;;;14.33;10.57;;;;;;;4.14;45.77;101031.56;10466319;28;20257;-84
2022/01/19 14:02:00;;;;;;;14.00;10.83;;;;;;;4.01;46.72;101025.47;10443492;28;20510;-83
2022/01/19 14:07:10;;;;;;;16.93;11.33;;;;;;;3.74;47.18;101010.22;10448852;28;20215;-83
2022/01/19 14:12:16;;;;;;;13.67;10.47;;;;;;;2.94;49.17;101013.75;10446500;28;20208;-84
2022/01/19 14:17:41;;;;;;;14.37;11.00;;;;;;;4.04;46.87;101004.47;10449658;28;20270;-83
2022/01/19 14:22:43;;;;;;;15.03;10.73;;;;;;;3.26;49.38;101001.44;10439651;28;20200;-84
2022/01/19 14:27:47;;;;;;;14.20;10.43;;;;;;;3.04;49.42;100989.72;10444144;28;20246;-84
2022/01/19 14:32:52;;;;;;;13.13;10.83;;;;;;;3.55;47.64;100985.69;10440171;28;20246;-83
2022/01/19 14:37:54;;;;;;;13.50;10.07;;;;;;;4.17;47.59;100973.06;10443694;28;20567;-84
2022/01/19 14:42:56;;;;;;;14.90;10.90;;;;;;;3.04;49.68;100968.22;10440272;28;20247;-83
2022/01/19 14:47:59;;;;;;;13.47;10.80;;;;;;;3.24;49.54;100956.13;10422726;28;20282;-84
2022/01/19 14:53:03;;;;;;;13.73;11.77;;;;;;;4.02;47.59;100953.56;10443451;28;20209;-85
2022/01/19 14:58:07;;;;;;;13.93;11.33;;;;;;;3.91;47.83;100937.97;10432776;28;20224;-84
2022/01/19 15:03:09;;;;;;;14.33;11.73;;;;;;;4.11;47.97;100942.63;10429774;28;20261;-84
2022/01/19 15:08:11;;;;;;;13.33;11.47;;;;;;;3.33;49.31;100932.97;10409710;28;20631;-82
2022/01/19 15:13:14;;;;;;;13.33;11.60;;;;;;;3.11;50.45;100940.81;10441280;28;20254;-82
2022/01/19 15:18:16;;;;;;;17.00;12.83;;;;;;;4.18;48.94;100931.91;10435110;28;20228;-81
2022/01/19 15:23:21;;;;;;;16.90;12.77;;;;;;;3.16;52.24;100926.00;10456632;28;20211;-81
2022/01/19 15:28:24;;;;;;;22.53;14.17;;;;;;;3.00;52.98;100930.78;10468575;28;20492;-82
2022/01/19 15:33:27;;;;;;;20.73;14.33;;;;;;;3.15;52.49;100932.69;10487370;28;20213;-83
2022/01/19 15:38:30;;;;;;;21.13;14.80;;;;;;;2.98;54.68;100939.44;10449127;28;20224;-83
2022/01/19 15:43:32;;;;;;;19.87;14.50;;;;;;;4.11;51.53;100918.28;10471736;28;20199;-83
2022/01/19 15:48:34;;;;;;;23.63;16.40;;;;;;;2.92;55.25;100915.44;10470977;28;20278;-83
2022/01/19 15:53:36;;;;;;;21.90;16.63;;;;;;;3.02;55.01;100908.16;10463179;28;20545;-82
2022/01/19 15:58:38;;;;;;;23.73;16.07;;;;;;;2.64;56.19;100913.25;10448755;28;20680;-83
2022/01/19 16:03:41;;;;;;;21.17;15.60;;;;;;;3.29;55.08;100917.03;10475707;28;20203;-84
2022/01/19 16:08:43;;;;;;;22.93;16.37;;;;;;;2.83;55.63;100914.31;10486216;28;20617;-84
2022/01/19 16:13:46;;;;;;;21.33;15.17;;;;;;;3.43;55.21;100904.13;10470579;28;20200;-83
2022/01/19 16:18:48;;;;;;;21.57;16.00;;;;;;;3.24;54.62;100917.00;10433782;28;20231;-82
2022/01/19 16:29:33;;;;;;;22.20;15.43;;;;;;;3.35;55.69;100924.25;10475363;28;20195;-83
2022/01/19 16:34:36;;;;;;;20.40;15.00;;;;;;;3.39;55.14;100903.00;10484416;28;20212;-84
2022/01/19 16:39:38;;;;;;;21.57;15.03;;;;;;;2.87;56.32;100912.66;10456317;28;20216;-82
2022/01/19 16:44:40;;;;;;;20.97;14.40;;;;;;;3.18;55.63;100912.56;10450670;28;20200;-84
2022/01/19 16:49:47;;;;;;;19.57;14.80;;;;;;;2.49;57.17;100930.00;10441886;28;20227;-83
2022/01/19 16:54:49;;;;;;;19.83;14.73;;;;;;;2.49;56.97;100921.63;10435018;28;20567;-85
2022/01/19 16:59:52;;;;;;;21.67;15.47;;;;;;;2.99;56.37;100904.81;10432203;28;20224;-81
2022/01/19 17:04:54;;;;;;;24.30;14.30;;;;;;;3.06;56.74;100915.69;10438353;28;20254;-83
2022/01/19 17:09:56;;;;;;;21.93;14.40;;;;;;;2.94;56.43;100902.03;10456091;28;20220;-84
2022/01/19 17:15:13;;;;;;;20.63;14.77;;;;;;;3.61;55.25;100911.00;10431886;28;20274;-85
2022/01/19 17:20:25;;;;;;;23.57;16.37;;;;;;;3.53;55.82;100914.41;10442121;28;20278;-84
2022/01/19 17:25:27;;;;;;;23.47;15.23;;;;;;;3.66;55.59;100911.81;10441576;28;20711;-83
2022/01/19 17:30:29;;;;;;;25.20;16.80;;;;;;;3.29;56.09;100912.28;10447250;28;20196;-85
2022/01/19 17:35:31;;;;;;;22.93;15.57;;;;;;;2.89;58.24;100918.78;10442550;28;20209;-83
2022/01/19 17:40:34;;;;;;;23.20;15.70;;;;;;;3.31;56.90;100907.25;10441346;28;20247;-83
2022/01/19 17:45:48;;;;;;;21.23;14.87;;;;;;;3.01;57.11;100912.06;10432323;28;20504;-85
2022/01/19 17:50:57;;;;;;;21.97;14.93;;;;;;;4.08;54.87;100909.63;10445316;28;20666;-83
2022/01/19 17:56:00;;;;;;;23.67;15.90;;;;;;;3.12;58.25;100917.34;10434181;28;20505;-83
2022/01/19 18:01:03;;;;;;;23.90;15.37;;;;;;;3.77;56.35;100908.97;10444751;28;20277;-84
2022/01/19 18:06:05;;;;;;;22.27;15.03;;;;;;;3.53;56.70;100915.25;10433945;28;20529;-85
2022/01/19 18:11:09;;;;;;;24.43;16.20;;;;;;;3.78;56.41;100910.63;10425301;28;20501;-85
2022/01/19 18:16:12;;;;;;;24.33;15.53;;;;;;;3.41;57.90;100911.13;10439773;28;20664;-84
2022/01/19 18:21:16;;;;;;;23.10;15.33;;;;;;;4.05;56.09;100922.22;10415331;28;20314;-84
2022/01/19 18:26:21;;;;;;;22.10;15.93;;;;;;;3.30;58.26;100927.09;10441033;28;20199;-85
2022/01/19 18:31:23;;;;;;;22.10;15.27;;;;;;;2.75;59.22;100923.28;10413480;28;20606;-83
2022/01/19 18:36:25;;;;;;;29.63;17.33;;;;;;;3.63;57.69;100920.78;10426460;28;20224;-84
2022/01/19 18:41:29;;;;;;;28.50;18.43;;;;;;;4.01;55.60;100912.72;10425964;28;20263;-83
2022/01/19 18:46:31;;;;;;;26.83;19.07;;;;;;;3.97;55.57;100911.66;10447668;28;20779;-83
2022/01/19 18:51:33;;;;;;;25.83;18.50;;;;;;;3.71;57.48;100901.75;10442027;28;20196;-84
2022/01/19 18:56:35;;;;;;;28.87;19.87;;;;;;;4.01;56.58;100898.72;10443280;28;20227;-84
2022/01/19 19:01:41;;;;;;;31.13;20.57;;;;;;;4.47;55.07;100895.59;10461731;28;20252;-84
2022/01/19 19:06:46;;;;;;;33.63;23.33;;;;;;;4.34;55.30;100902.69;10450573;28;20269;-84
2022/01/19 19:12:04;;;;;;;37.33;24.03;;;;;;;3.76;57.65;100910.91;10434700;28;20227;-84
2022/01/19 19:17:06;;;;;;;36.47;24.40;;;;;;;3.70;57.99;100914.88;10413994;28;20220;-85
2022/01/19 19:22:09;;;;;;;35.03;23.53;;;;;;;4.54;55.03;100912.91;10422682;28;20706;-84
2022/01/19 19:27:13;;;;;;;37.07;24.53;;;;;;;4.35;55.82;100929.56;10438183;28;20200;-83
2022/01/19 19:32:16;;;;;;;40.00;25.70;;;;;;;5.04;54.15;100925.56;10447213;28;20605;-84
2022/01/19 19:37:18;;;;;;;45.57;28.30;;;;;;;4.44;55.87;100946.56;10452731;28;20204;-84
2022/01/19 19:42:20;;;;;;;42.73;27.47;;;;;;;3.85;58.02;100944.72;10412191;28;20501;-83
2022/01/19 19:47:23;;;;;;;46.03;29.23;;;;;;;4.19;56.76;100937.22;10439044;28;20240;-85
2022/01/19 19:52:27;;;;;;;46.37;29.03;;;;;;;3.96;58.08;100946.34;10437497;28;20640;-84
2022/01/19 19:57:30;;;;;;;47.93;29.37;;;;;;;4.33;57.04;100945.81;10430728;28;20572;-84
2022/01/19 20:02:32;;;;;;;50.97;30.67;;;;;;;4.39;57.45;100951.06;10427803;28;20284;-84
2022/01/19 20:07:34;;;;;;;57.67;33.83;;;;;;;4.54;56.71;100941.72;10414516;28;20215;-85
2022/01/19 20:12:37;;;;;;;51.53;31.17;;;;;;;4.01;58.96;100952.72;10418378;28;20288;-84
2022/01/19 20:17:39;;;;;;;49.80;31.20;;;;;;;4.49;57.18;100966.97;10437831;28;20627;-84
2022/01/19 20:22:42;;;;;;;51.77;32.33;;;;;;;5.17;55.50;100971.66;10442200;28;20223;-85
2022/01/19 20:27:44;;;;;;;47.63;29.77;;;;;;;4.90;55.99;100978.66;10441613;28;20643;-84
2022/01/19 20:32:48;;;;;;;50.60;32.30;;;;;;;4.59;57.67;100980.06;10452831;28;20655;-84
2022/01/19 20:37:50;;;;;;;52.07;30.97;;;;;;;4.46;57.82;100989.94;10431842;28;20215;-83
2022/01/19 20:42:52;;;;;;;49.63;31.23;;;;;;;4.94;55.33;101004.97;10442925;28;20203;-84
2022/01/19 20:47:54;;;;;;;45.10;28.07;;;;;;;4.62;56.59;100999.09;10445243;28;20259;-85
2022/01/19 20:52:57;;;;;;;42.33;27.43;;;;;;;4.74;56.85;101005.16;10422533;28;20208;-83
2022/01/19 20:57:59;;;;;;;42.37;25.93;;;;;;;4.02;58.30;101023.50;10435441;28;20228;-83
2022/01/19 21:03:02;;;;;;;42.07;24.80;;;;;;;4.83;56.83;101025.78;10436061;28;20235;-84
2022/01/19 21:08:05;;;;;;;42.03;23.90;;;;;;;5.36;54.97;101020.25;10421311;28;20232;-84
2022/01/19 21:13:08;;;;;;;41.37;25.53;;;;;;;5.02;55.21;101023.97;10450159;28;20242;-85
2022/01/19 21:18:10;;;;;;;40.70;22.60;;;;;;;4.48;57.04;101026.88;10440389;28;20204;-85
2022/01/19 21:23:13;;;;;;;42.33;21.47;;;;;;;4.50;57.43;101029.44;10428771;28;20255;-85
2022/01/19 21:28:16;;;;;;;28.53;16.83;;;;;;;3.92;58.07;101040.34;10433517;28;20200;-85
2022/01/19 21:33:19;;;;;;;40.97;18.60;;;;;;;4.11;58.87;101041.38;10438368;28;20204;-85
2022/01/19 21:38:22;;;;;;;28.90;13.47;;;;;;;3.47;59.19;101055.34;10453773;28;20258;-85
2022/01/19 21:43:24;;;;;;;38.90;16.00;;;;;;;4.39;57.68;101054.63;10441322;28;20722;-85
2022/01/19 21:48:27;;;;;;;35.57;14.67;;;;;;;3.59;60.21;101061.47;10479513;28;20259;-85
2022/01/19 21:53:30;;;;;;;30.43;14.00;;;;;;;4.48;57.95;101054.03;10482163;28;20207;-85
2022/01/19 21:58:33;;;;;;;29.13;12.63;;;;;;;4.71;56.49;101059.78;10482126;28;20292;-86
2022/01/19 22:03:35;;;;;;;22.60;11.00;;;;;;;3.38;60.51;101074.63;10466906;28;20211;-84
2022/01/19 22:08:37;;;;;;;37.73;12.53;;;;;;;4.27;57.47;101079.34;10435855;28;20215;-84
2022/01/19 22:13:39;;;;;;;26.53;9.30;;;;;;;3.80;58.75;101081.78;10504509;28;20248;-86
2022/01/19 22:18:42;;;;;;;31.73;9.83;;;;;;;4.67;55.42;101069.88;10475222;28;20221;-85
2022/01/19 22:23:44;;;;;;;29.77;8.27;;;;;;;4.45;56.33;101074.22;10468143;28;20218;-84
2022/01/19 22:28:46;;;;;;;24.20;7.33;;;;;;;3.90;57.00;101082.59;10448181;28;20255;-86
2022/01/19 22:33:49;;;;;;;22.90;7.60;;;;;;;3.65;58.34;101097.50;10449442;28;20197;-85
2022/01/19 22:38:51;;;;;;;25.00;6.03;;;;;;;3.86;56.94;101103.03;10439888;28;20266;-86
2022/01/19 22:43:55;;;;;;;19.73;5.90;;;;;;;4.66;54.37;101115.00;10440716;28;20200;-86
2022/01/19 22:48:57;;;;;;;26.07;6.87;;;;;;;4.03;55.93;101115.56;10441427;28;20219;-85
2022/01/19 22:53:59;;;;;;;21.80;5.27;;;;;;;3.89;55.98;101110.84;10439352;28;20556;-84
2022/01/19 22:59:03;;;;;;;20.63;5.43;;;;;;;3.25;58.38;101119.91;10444244;28;20251;-86
2022/01/19 23:04:05;;;;;;;19.27;5.03;;;;;;;4.46;54.41;101123.50;10444608;28;20258;-85
2022/01/19 23:09:09;;;;;;;25.43;5.13;;;;;;;4.39;54.39;101116.22;10431993;28;20208;-87
2022/01/19 23:14:14;;;;;;;20.97;4.17;;;;;;;4.58;52.67;101112.81;10418939;28;20220;-84
2022/01/19 23:19:17;;;;;;;15.07;3.90;;;;;;;4.29;52.95;101133.06;10425646;28;20266;-85
2022/01/19 23:24:19;;;;;;;17.73;4.17;;;;;;;4.47;52.77;101130.75;10459778;28;20204;-85
2022/01/19 23:29:22;;;;;;;16.83;3.97;;;;;;;4.07;53.73;101141.00;10454289;28;20196;-84
2022/01/19 23:34:30;;;;;;;18.90;4.17;;;;;;;4.66;51.28;101137.41;10418803;28;20209;-85
2022/01/19 23:50:11;;;;;;;20.17;4.40;;;;;;;3.76;54.48;101159.81;10461778;28;20265;-84
2022/01/19 23:55:15;;;;;;;19.77;4.43;;;;;;;4.11;53.88;101163.69;10442895;28;20674;-83
